sensor_id;sensor_type;location;lat;lon;timestamp;P1;durP1;ratioP1;P2;durP2;ratioP2
40154;SDS011;25875;48.202;16.334;2022-12-08T00:00:00;10.32;;;7.25;;
40154;SDS011;25875;48.202;16.334;2022-12-08T00:02:27;8.70;;;6.80;;
40154;SDS011;25875;48.202;16.334;2022-12-08T00:04:54;8.95;;;7.47;;
40154;SDS011;25875;48.202;16.334;2022-12-08T00:07:38;9.88;;;7.15;;
40154;SDS011;25875;48.202;16.334;2022-12-08T00:10:22;8.90;;;6.95;;
40154;SDS011;25875;48.202;16.334;2022-12-08T00:12:50;9.35;;;7.15;;
40154;SDS011;25875;48.202;16.334;2022-12-08T00:15:17;8.20;;;6.47;;
40154;SDS011;25875;48.202;16.334;2022-12-08T00:17:44;10.05;;;7.97;;
40154;SDS011;25875;48.202;16.334;2022-12-08T00:20:11;10.60;;;7.80;;
40154;SDS011;25875;48.202;16.334;2022-12-08T00:22:37;9.52;;;7.25;;
40154;SDS011;25875;48.202;16.334;2022-12-08T00:25:04;9.18;;;7.60;;
40154;SDS011;25875;48.202;16.334;2022-12-08T00:27:32;9.23;;;7.47;;
40154;SDS011;25875;48.202;16.334;2022-12-08T00:30:00;9.55;;;7.18;;
40154;SDS011;25875;48.202;16.334;2022-12-08T00:32:26;10.85;;;8.00;;
40154;SDS011;25875;48.202;16.334;2022-12-08T00:34:53;10.55;;;7.78;;
40154;SDS011;25875;48.202;16.334;2022-12-08T00:37:20;9.30;;;6.80;;
40154;SDS011;25875;48.202;16.334;2022-12-08T00:39:47;9.40;;;7.30;;
40154;SDS011;25875;48.202;16.334;2022-12-08T00:42:14;9.65;;;6.50;;
40154;SDS011;25875;48.202;16.334;2022-12-08T00:44:41;8.52;;;6.72;;
40154;SDS011;25875;48.202;16.334;2022-12-08T00:47:11;7.07;;;6.03;;
40154;SDS011;25875;48.202;16.334;2022-12-08T00:49:38;7.85;;;6.05;;
40154;SDS011;25875;48.202;16.334;2022-12-08T00:52:05;7.38;;;6.32;;
40154;SDS011;25875;48.202;16.334;2022-12-08T00:54:33;7.03;;;5.65;;
40154;SDS011;25875;48.202;16.334;2022-12-08T00:56:59;7.82;;;5.72;;
40154;SDS011;25875;48.202;16.334;2022-12-08T00:59:26;7.47;;;5.95;;
40154;SDS011;25875;48.202;16.334;2022-12-08T01:01:53;8.60;;;6.00;;
40154;SDS011;25875;48.202;16.334;2022-12-08T01:04:21;8.32;;;6.22;;
40154;SDS011;25875;48.202;16.334;2022-12-08T01:06:48;8.43;;;6.50;;
40154;SDS011;25875;48.202;16.334;2022-12-08T01:09:15;6.57;;;5.85;;
40154;SDS011;25875;48.202;16.334;2022-12-08T01:11:42;8.18;;;6.68;;
40154;SDS011;25875;48.202;16.334;2022-12-08T01:14:10;8.23;;;6.57;;
40154;SDS011;25875;48.202;16.334;2022-12-08T01:16:36;10.57;;;7.60;;
40154;SDS011;25875;48.202;16.334;2022-12-08T01:19:05;10.35;;;7.20;;
40154;SDS011;25875;48.202;16.334;2022-12-08T01:21:33;9.68;;;7.30;;
40154;SDS011;25875;48.202;16.334;2022-12-08T01:24:00;8.25;;;6.60;;
40154;SDS011;25875;48.202;16.334;2022-12-08T01:26:27;7.75;;;6.55;;
40154;SDS011;25875;48.202;16.334;2022-12-08T01:28:53;10.13;;;6.07;;
40154;SDS011;25875;48.202;16.334;2022-12-08T01:31:21;8.65;;;6.30;;
40154;SDS011;25875;48.202;16.334;2022-12-08T01:33:48;6.70;;;5.25;;
40154;SDS011;25875;48.202;16.334;2022-12-08T01:36:17;7.90;;;6.28;;
40154;SDS011;25875;48.202;16.334;2022-12-08T01:38:47;7.57;;;5.70;;
40154;SDS011;25875;48.202;16.334;2022-12-08T01:41:14;7.97;;;6.00;;
40154;SDS011;25875;48.202;16.334;2022-12-08T01:43:44;7.25;;;5.70;;
40154;SDS011;25875;48.202;16.334;2022-12-08T01:46:19;7.32;;;5.43;;
40154;SDS011;25875;48.202;16.334;2022-12-08T01:48:46;8.82;;;6.40;;
40154;SDS011;25875;48.202;16.334;2022-12-08T01:51:14;8.10;;;6.68;;
40154;SDS011;25875;48.202;16.334;2022-12-08T01:53:41;8.40;;;6.47;;
40154;SDS011;25875;48.202;16.334;2022-12-08T01:56:10;6.90;;;6.20;;
40154;SDS011;25875;48.202;16.334;2022-12-08T01:58:42;7.72;;;6.43;;
40154;SDS011;25875;48.202;16.334;2022-12-08T02:01:12;9.60;;;7.00;;
40154;SDS011;25875;48.202;16.334;2022-12-08T02:03:40;8.57;;;7.05;;
40154;SDS011;25875;48.202;16.334;2022-12-08T02:06:10;7.57;;;6.45;;
40154;SDS011;25875;48.202;16.334;2022-12-08T02:08:38;7.97;;;6.25;;
40154;SDS011;25875;48.202;16.334;2022-12-08T02:11:07;10.98;;;6.97;;
40154;SDS011;25875;48.202;16.334;2022-12-08T02:13:36;8.95;;;5.40;;
40154;SDS011;25875;48.202;16.334;2022-12-08T02:16:07;7.65;;;5.93;;
40154;SDS011;25875;48.202;16.334;2022-12-08T02:18:44;7.63;;;5.68;;
40154;SDS011;25875;48.202;16.334;2022-12-08T02:21:22;7.65;;;5.20;;
40154;SDS011;25875;48.202;16.334;2022-12-08T02:23:58;8.93;;;5.88;;
40154;SDS011;25875;48.202;16.334;2022-12-08T02:26:42;7.93;;;6.85;;
40154;SDS011;25875;48.202;16.334;2022-12-08T02:29:40;6.95;;;5.72;;
40154;SDS011;25875;48.202;16.334;2022-12-08T02:32:23;9.82;;;7.30;;
40154;SDS011;25875;48.202;16.334;2022-12-08T02:35:19;8.02;;;6.20;;
40154;SDS011;25875;48.202;16.334;2022-12-08T02:37:54;7.68;;;5.88;;
40154;SDS011;25875;48.202;16.334;2022-12-08T02:40:28;9.38;;;5.88;;
40154;SDS011;25875;48.202;16.334;2022-12-08T02:42:59;7.22;;;5.55;;
40154;SDS011;25875;48.202;16.334;2022-12-08T02:45:29;8.07;;;6.38;;
40154;SDS011;25875;48.202;16.334;2022-12-08T02:47:59;7.32;;;5.10;;
40154;SDS011;25875;48.202;16.334;2022-12-08T02:50:27;6.38;;;5.55;;
40154;SDS011;25875;48.202;16.334;2022-12-08T02:52:54;8.73;;;5.85;;
40154;SDS011;25875;48.202;16.334;2022-12-08T02:55:23;7.03;;;5.80;;
40154;SDS011;25875;48.202;16.334;2022-12-08T02:58:00;9.43;;;6.43;;
40154;SDS011;25875;48.202;16.334;2022-12-08T03:01:08;7.78;;;5.40;;
40154;SDS011;25875;48.202;16.334;2022-12-08T03:03:46;8.73;;;6.20;;
40154;SDS011;25875;48.202;16.334;2022-12-08T03:06:23;8.30;;;5.78;;
40154;SDS011;25875;48.202;16.334;2022-12-08T03:08:54;9.07;;;6.03;;
40154;SDS011;25875;48.202;16.334;2022-12-08T03:11:26;6.90;;;5.50;;
40154;SDS011;25875;48.202;16.334;2022-12-08T03:13:57;8.00;;;6.38;;
40154;SDS011;25875;48.202;16.334;2022-12-08T03:16:27;9.38;;;5.53;;
40154;SDS011;25875;48.202;16.334;2022-12-08T03:18:58;8.27;;;5.88;;
40154;SDS011;25875;48.202;16.334;2022-12-08T03:21:30;8.82;;;6.20;;
40154;SDS011;25875;48.202;16.334;2022-12-08T03:23:59;8.15;;;5.50;;
40154;SDS011;25875;48.202;16.334;2022-12-08T03:26:30;6.97;;;6.18;;
40154;SDS011;25875;48.202;16.334;2022-12-08T03:29:04;6.43;;;5.18;;
40154;SDS011;25875;48.202;16.334;2022-12-08T03:31:32;8.20;;;7.03;;
40154;SDS011;25875;48.202;16.334;2022-12-08T03:34:05;10.68;;;7.07;;
40154;SDS011;25875;48.202;16.334;2022-12-08T03:36:36;7.75;;;6.38;;
40154;SDS011;25875;48.202;16.334;2022-12-08T03:39:03;8.50;;;5.40;;
40154;SDS011;25875;48.202;16.334;2022-12-08T03:41:29;6.90;;;5.75;;
40154;SDS011;25875;48.202;16.334;2022-12-08T03:43:57;6.53;;;5.65;;
40154;SDS011;25875;48.202;16.334;2022-12-08T03:46:25;7.32;;;5.57;;
40154;SDS011;25875;48.202;16.334;2022-12-08T03:48:53;8.02;;;6.00;;
40154;SDS011;25875;48.202;16.334;2022-12-08T03:51:20;9.02;;;5.82;;
40154;SDS011;25875;48.202;16.334;2022-12-08T03:53:48;8.95;;;7.25;;
40154;SDS011;25875;48.202;16.334;2022-12-08T03:56:19;8.75;;;6.35;;
40154;SDS011;25875;48.202;16.334;2022-12-08T03:58:51;12.02;;;6.50;;
40154;SDS011;25875;48.202;16.334;2022-12-08T04:01:18;7.47;;;6.00;;
40154;SDS011;25875;48.202;16.334;2022-12-08T04:03:45;7.95;;;6.18;;
40154;SDS011;25875;48.202;16.334;2022-12-08T04:06:12;9.18;;;6.65;;
40154;SDS011;25875;48.202;16.334;2022-12-08T04:08:39;7.03;;;5.88;;
40154;SDS011;25875;48.202;16.334;2022-12-08T04:11:08;7.78;;;6.13;;
40154;SDS011;25875;48.202;16.334;2022-12-08T04:13:36;8.20;;;5.82;;
40154;SDS011;25875;48.202;16.334;2022-12-08T04:16:04;8.63;;;6.72;;
40154;SDS011;25875;48.202;16.334;2022-12-08T04:18:32;9.38;;;6.72;;
40154;SDS011;25875;48.202;16.334;2022-12-08T04:20:59;8.27;;;6.38;;
40154;SDS011;25875;48.202;16.334;2022-12-08T04:23:26;8.55;;;7.18;;
40154;SDS011;25875;48.202;16.334;2022-12-08T04:25:53;7.38;;;6.47;;
40154;SDS011;25875;48.202;16.334;2022-12-08T04:28:21;7.85;;;5.50;;
40154;SDS011;25875;48.202;16.334;2022-12-08T04:30:47;7.70;;;6.05;;
40154;SDS011;25875;48.202;16.334;2022-12-08T04:33:15;9.00;;;6.35;;
40154;SDS011;25875;48.202;16.334;2022-12-08T04:35:41;7.90;;;6.40;;
40154;SDS011;25875;48.202;16.334;2022-12-08T04:38:08;8.05;;;5.95;;
40154;SDS011;25875;48.202;16.334;2022-12-08T04:40:35;8.35;;;6.18;;
40154;SDS011;25875;48.202;16.334;2022-12-08T04:43:02;7.97;;;6.38;;
40154;SDS011;25875;48.202;16.334;2022-12-08T04:45:30;9.07;;;6.22;;
40154;SDS011;25875;48.202;16.334;2022-12-08T04:47:58;9.00;;;6.45;;
40154;SDS011;25875;48.202;16.334;2022-12-08T04:50:25;9.52;;;6.82;;
40154;SDS011;25875;48.202;16.334;2022-12-08T04:52:52;7.05;;;5.65;;
40154;SDS011;25875;48.202;16.334;2022-12-08T04:55:20;8.25;;;6.15;;
40154;SDS011;25875;48.202;16.334;2022-12-08T04:57:47;7.78;;;6.25;;
40154;SDS011;25875;48.202;16.334;2022-12-08T05:00:14;7.68;;;5.72;;
40154;SDS011;25875;48.202;16.334;2022-12-08T05:02:42;8.27;;;5.97;;
40154;SDS011;25875;48.202;16.334;2022-12-08T05:05:09;8.02;;;6.15;;
40154;SDS011;25875;48.202;16.334;2022-12-08T05:07:36;9.63;;;6.80;;
40154;SDS011;25875;48.202;16.334;2022-12-08T05:10:03;10.23;;;7.85;;
40154;SDS011;25875;48.202;16.334;2022-12-08T05:12:30;8.52;;;6.22;;
40154;SDS011;25875;48.202;16.334;2022-12-08T05:14:57;8.80;;;6.22;;
40154;SDS011;25875;48.202;16.334;2022-12-08T05:17:23;8.48;;;6.45;;
40154;SDS011;25875;48.202;16.334;2022-12-08T05:19:52;9.63;;;6.75;;
40154;SDS011;25875;48.202;16.334;2022-12-08T05:22:18;10.13;;;6.93;;
40154;SDS011;25875;48.202;16.334;2022-12-08T05:24:45;9.57;;;6.57;;
40154;SDS011;25875;48.202;16.334;2022-12-08T05:27:12;8.05;;;6.25;;
40154;SDS011;25875;48.202;16.334;2022-12-08T05:29:39;9.48;;;6.53;;
40154;SDS011;25875;48.202;16.334;2022-12-08T05:32:05;7.90;;;5.90;;
40154;SDS011;25875;48.202;16.334;2022-12-08T05:34:32;8.30;;;6.35;;
40154;SDS011;25875;48.202;16.334;2022-12-08T05:37:00;9.43;;;6.78;;
40154;SDS011;25875;48.202;16.334;2022-12-08T05:39:27;8.75;;;6.45;;
40154;SDS011;25875;48.202;16.334;2022-12-08T05:41:54;11.20;;;6.60;;
40154;SDS011;25875;48.202;16.334;2022-12-08T05:44:20;7.55;;;5.85;;
40154;SDS011;25875;48.202;16.334;2022-12-08T05:46:47;7.85;;;6.15;;
40154;SDS011;25875;48.202;16.334;2022-12-08T05:49:14;8.65;;;7.15;;
40154;SDS011;25875;48.202;16.334;2022-12-08T05:51:41;9.30;;;6.40;;
40154;SDS011;25875;48.202;16.334;2022-12-08T05:54:09;8.73;;;6.40;;
40154;SDS011;25875;48.202;16.334;2022-12-08T05:56:36;8.23;;;6.30;;
40154;SDS011;25875;48.202;16.334;2022-12-08T05:59:04;8.85;;;5.93;;
40154;SDS011;25875;48.202;16.334;2022-12-08T06:01:31;6.60;;;5.90;;
40154;SDS011;25875;48.202;16.334;2022-12-08T06:03:58;7.60;;;5.47;;
40154;SDS011;25875;48.202;16.334;2022-12-08T06:06:26;9.30;;;5.85;;
40154;SDS011;25875;48.202;16.334;2022-12-08T06:08:54;10.45;;;7.18;;
40154;SDS011;25875;48.202;16.334;2022-12-08T06:11:22;9.30;;;6.82;;
40154;SDS011;25875;48.202;16.334;2022-12-08T06:13:51;10.60;;;6.95;;
40154;SDS011;25875;48.202;16.334;2022-12-08T06:16:18;10.32;;;7.75;;
40154;SDS011;25875;48.202;16.334;2022-12-08T06:18:45;8.50;;;6.18;;
40154;SDS011;25875;48.202;16.334;2022-12-08T06:21:12;9.23;;;6.15;;
40154;SDS011;25875;48.202;16.334;2022-12-08T06:23:40;8.60;;;6.90;;
40154;SDS011;25875;48.202;16.334;2022-12-08T06:26:08;9.75;;;7.25;;
40154;SDS011;25875;48.202;16.334;2022-12-08T06:28:38;9.68;;;7.03;;
40154;SDS011;25875;48.202;16.334;2022-12-08T06:31:06;8.38;;;6.47;;
40154;SDS011;25875;48.202;16.334;2022-12-08T06:33:34;8.57;;;6.53;;
40154;SDS011;25875;48.202;16.334;2022-12-08T06:36:01;9.93;;;6.88;;
40154;SDS011;25875;48.202;16.334;2022-12-08T06:38:28;9.30;;;7.50;;
40154;SDS011;25875;48.202;16.334;2022-12-08T06:40:56;10.70;;;7.88;;
40154;SDS011;25875;48.202;16.334;2022-12-08T06:43:24;8.45;;;6.43;;
40154;SDS011;25875;48.202;16.334;2022-12-08T06:45:53;9.20;;;7.40;;
40154;SDS011;25875;48.202;16.334;2022-12-08T06:48:19;7.88;;;6.25;;
40154;SDS011;25875;48.202;16.334;2022-12-08T06:50:46;9.68;;;6.63;;
40154;SDS011;25875;48.202;16.334;2022-12-08T06:53:13;9.15;;;7.03;;
40154;SDS011;25875;48.202;16.334;2022-12-08T06:55:44;7.85;;;6.88;;
40154;SDS011;25875;48.202;16.334;2022-12-08T06:58:11;9.00;;;6.65;;
40154;SDS011;25875;48.202;16.334;2022-12-08T07:00:38;8.40;;;6.70;;
40154;SDS011;25875;48.202;16.334;2022-12-08T07:03:07;10.52;;;7.40;;
40154;SDS011;25875;48.202;16.334;2022-12-08T07:05:35;9.52;;;7.90;;
40154;SDS011;25875;48.202;16.334;2022-12-08T07:08:02;9.63;;;7.55;;
40154;SDS011;25875;48.202;16.334;2022-12-08T07:10:31;8.90;;;7.15;;
40154;SDS011;25875;48.202;16.334;2022-12-08T07:12:58;9.75;;;7.00;;
40154;SDS011;25875;48.202;16.334;2022-12-08T07:15:24;7.75;;;6.40;;
40154;SDS011;25875;48.202;16.334;2022-12-08T07:17:51;8.60;;;6.50;;
40154;SDS011;25875;48.202;16.334;2022-12-08T07:20:19;10.45;;;7.57;;
40154;SDS011;25875;48.202;16.334;2022-12-08T07:22:47;8.70;;;7.10;;
40154;SDS011;25875;48.202;16.334;2022-12-08T07:25:15;8.38;;;6.72;;
40154;SDS011;25875;48.202;16.334;2022-12-08T07:27:41;9.30;;;6.63;;
40154;SDS011;25875;48.202;16.334;2022-12-08T07:30:09;9.45;;;7.35;;
40154;SDS011;25875;48.202;16.334;2022-12-08T07:32:36;8.25;;;7.32;;
40154;SDS011;25875;48.202;16.334;2022-12-08T07:35:03;8.48;;;6.82;;
40154;SDS011;25875;48.202;16.334;2022-12-08T07:37:32;7.63;;;6.50;;
40154;SDS011;25875;48.202;16.334;2022-12-08T07:40:00;9.07;;;7.80;;
40154;SDS011;25875;48.202;16.334;2022-12-08T07:42:27;9.43;;;7.05;;
40154;SDS011;25875;48.202;16.334;2022-12-08T07:44:54;11.13;;;7.82;;
40154;SDS011;25875;48.202;16.334;2022-12-08T07:47:20;7.57;;;6.68;;
40154;SDS011;25875;48.202;16.334;2022-12-08T07:49:47;8.90;;;7.75;;
40154;SDS011;25875;48.202;16.334;2022-12-08T07:52:14;11.05;;;8.45;;
40154;SDS011;25875;48.202;16.334;2022-12-08T07:54:42;8.38;;;7.03;;
40154;SDS011;25875;48.202;16.334;2022-12-08T07:57:09;9.23;;;7.18;;
40154;SDS011;25875;48.202;16.334;2022-12-08T07:59:35;9.32;;;7.85;;
40154;SDS011;25875;48.202;16.334;2022-12-08T08:02:02;8.55;;;7.65;;
40154;SDS011;25875;48.202;16.334;2022-12-08T08:04:29;10.43;;;7.85;;
40154;SDS011;25875;48.202;16.334;2022-12-08T08:06:56;9.57;;;8.18;;
40154;SDS011;25875;48.202;16.334;2022-12-08T08:09:22;11.90;;;7.95;;
40154;SDS011;25875;48.202;16.334;2022-12-08T08:11:51;10.70;;;7.22;;
40154;SDS011;25875;48.202;16.334;2022-12-08T08:14:18;10.32;;;8.18;;
40154;SDS011;25875;48.202;16.334;2022-12-08T08:16:44;9.05;;;8.02;;
40154;SDS011;25875;48.202;16.334;2022-12-08T08:19:11;10.13;;;8.10;;
40154;SDS011;25875;48.202;16.334;2022-12-08T08:21:38;10.63;;;7.93;;
40154;SDS011;25875;48.202;16.334;2022-12-08T08:24:05;10.60;;;8.25;;
40154;SDS011;25875;48.202;16.334;2022-12-08T08:26:32;9.77;;;7.50;;
40154;SDS011;25875;48.202;16.334;2022-12-08T08:29:01;9.98;;;7.72;;
40154;SDS011;25875;48.202;16.334;2022-12-08T08:31:27;8.30;;;6.78;;
40154;SDS011;25875;48.202;16.334;2022-12-08T08:33:54;9.15;;;7.47;;
40154;SDS011;25875;48.202;16.334;2022-12-08T08:36:22;8.90;;;7.25;;
40154;SDS011;25875;48.202;16.334;2022-12-08T08:38:48;9.65;;;7.53;;
40154;SDS011;25875;48.202;16.334;2022-12-08T08:41:15;9.45;;;8.02;;
40154;SDS011;25875;48.202;16.334;2022-12-08T08:43:42;9.20;;;7.28;;
40154;SDS011;25875;48.202;16.334;2022-12-08T08:46:10;9.68;;;7.95;;
40154;SDS011;25875;48.202;16.334;2022-12-08T08:48:37;10.05;;;8.50;;
40154;SDS011;25875;48.202;16.334;2022-12-08T08:51:07;9.43;;;8.18;;
40154;SDS011;25875;48.202;16.334;2022-12-08T08:53:35;8.88;;;7.38;;
40154;SDS011;25875;48.202;16.334;2022-12-08T08:56:02;8.70;;;6.97;;
40154;SDS011;25875;48.202;16.334;2022-12-08T08:58:33;9.02;;;7.30;;
40154;SDS011;25875;48.202;16.334;2022-12-08T09:00:59;8.30;;;7.18;;
40154;SDS011;25875;48.202;16.334;2022-12-08T09:03:27;8.70;;;6.90;;
40154;SDS011;25875;48.202;16.334;2022-12-08T09:05:54;9.55;;;7.43;;
40154;SDS011;25875;48.202;16.334;2022-12-08T09:08:21;8.85;;;7.55;;
40154;SDS011;25875;48.202;16.334;2022-12-08T09:10:48;10.48;;;7.38;;
40154;SDS011;25875;48.202;16.334;2022-12-08T09:13:15;8.07;;;6.82;;
40154;SDS011;25875;48.202;16.334;2022-12-08T09:15:42;9.05;;;7.85;;
40154;SDS011;25875;48.202;16.334;2022-12-08T09:18:08;9.52;;;8.15;;
40154;SDS011;25875;48.202;16.334;2022-12-08T09:20:38;8.65;;;7.25;;
40154;SDS011;25875;48.202;16.334;2022-12-08T09:23:04;9.50;;;8.40;;
40154;SDS011;25875;48.202;16.334;2022-12-08T09:25:31;9.10;;;7.43;;
40154;SDS011;25875;48.202;16.334;2022-12-08T09:27:58;8.40;;;7.10;;
40154;SDS011;25875;48.202;16.334;2022-12-08T09:30:25;9.25;;;7.43;;
40154;SDS011;25875;48.202;16.334;2022-12-08T09:32:51;8.23;;;6.88;;
40154;SDS011;25875;48.202;16.334;2022-12-08T09:35:18;10.13;;;7.50;;
40154;SDS011;25875;48.202;16.334;2022-12-08T09:37:47;9.25;;;7.85;;
40154;SDS011;25875;48.202;16.334;2022-12-08T09:40:14;11.23;;;7.30;;
40154;SDS011;25875;48.202;16.334;2022-12-08T09:42:51;9.43;;;7.25;;
40154;SDS011;25875;48.202;16.334;2022-12-08T09:45:22;11.25;;;8.00;;
40154;SDS011;25875;48.202;16.334;2022-12-08T09:47:54;8.20;;;6.85;;
40154;SDS011;25875;48.202;16.334;2022-12-08T09:50:29;8.63;;;7.47;;
40154;SDS011;25875;48.202;16.334;2022-12-08T09:53:01;8.45;;;7.55;;
40154;SDS011;25875;48.202;16.334;2022-12-08T09:55:36;7.72;;;6.70;;
40154;SDS011;25875;48.202;16.334;2022-12-08T10:00:39;7.30;;;6.25;;
40154;SDS011;25875;48.202;16.334;2022-12-08T10:03:06;6.97;;;6.22;;
40154;SDS011;25875;48.202;16.334;2022-12-08T10:05:36;7.78;;;6.57;;
40154;SDS011;25875;48.202;16.334;2022-12-08T10:08:13;7.20;;;6.20;;
40154;SDS011;25875;48.202;16.334;2022-12-08T10:10:46;7.78;;;6.57;;
40154;SDS011;25875;48.202;16.334;2022-12-08T10:13:18;8.18;;;6.47;;
40154;SDS011;25875;48.202;16.334;2022-12-08T10:15:52;7.63;;;6.47;;
40154;SDS011;25875;48.202;16.334;2022-12-08T10:18:31;9.15;;;6.55;;
40154;SDS011;25875;48.202;16.334;2022-12-08T10:21:11;8.43;;;7.05;;
40154;SDS011;25875;48.202;16.334;2022-12-08T10:23:44;8.60;;;6.80;;
40154;SDS011;25875;48.202;16.334;2022-12-08T10:26:16;8.70;;;7.30;;
40154;SDS011;25875;48.202;16.334;2022-12-08T10:28:44;9.40;;;7.88;;
40154;SDS011;25875;48.202;16.334;2022-12-08T10:31:13;10.85;;;7.38;;
40154;SDS011;25875;48.202;16.334;2022-12-08T10:33:41;9.88;;;7.50;;
40154;SDS011;25875;48.202;16.334;2022-12-08T10:36:09;9.48;;;6.95;;
40154;SDS011;25875;48.202;16.334;2022-12-08T10:38:37;7.90;;;7.10;;
40154;SDS011;25875;48.202;16.334;2022-12-08T10:41:10;7.80;;;6.70;;
40154;SDS011;25875;48.202;16.334;2022-12-08T10:43:41;8.52;;;7.38;;
40154;SDS011;25875;48.202;16.334;2022-12-08T10:46:10;9.93;;;7.93;;
40154;SDS011;25875;48.202;16.334;2022-12-08T10:48:46;8.35;;;7.07;;
40154;SDS011;25875;48.202;16.334;2022-12-08T10:51:22;9.43;;;7.15;;
40154;SDS011;25875;48.202;16.334;2022-12-08T10:53:51;9.27;;;7.80;;
40154;SDS011;25875;48.202;16.334;2022-12-08T10:56:22;9.50;;;7.65;;
40154;SDS011;25875;48.202;16.334;2022-12-08T10:59:03;11.10;;;8.57;;
40154;SDS011;25875;48.202;16.334;2022-12-08T11:01:33;8.65;;;7.75;;
40154;SDS011;25875;48.202;16.334;2022-12-08T11:04:04;9.13;;;7.57;;
40154;SDS011;25875;48.202;16.334;2022-12-08T11:06:36;9.50;;;8.20;;
40154;SDS011;25875;48.202;16.334;2022-12-08T11:09:05;11.18;;;9.07;;
40154;SDS011;25875;48.202;16.334;2022-12-08T11:11:50;9.85;;;8.82;;
40154;SDS011;25875;48.202;16.334;2022-12-08T11:14:18;12.27;;;8.70;;
40154;SDS011;25875;48.202;16.334;2022-12-08T11:16:48;10.52;;;8.85;;
40154;SDS011;25875;48.202;16.334;2022-12-08T11:19:17;11.70;;;10.15;;
40154;SDS011;25875;48.202;16.334;2022-12-08T11:21:46;11.00;;;8.63;;
40154;SDS011;25875;48.202;16.334;2022-12-08T11:24:21;13.98;;;9.77;;
40154;SDS011;25875;48.202;16.334;2022-12-08T11:26:53;13.48;;;10.68;;
40154;SDS011;25875;48.202;16.334;2022-12-08T11:29:25;13.20;;;10.02;;
40154;SDS011;25875;48.202;16.334;2022-12-08T11:31:53;10.77;;;9.43;;
40154;SDS011;25875;48.202;16.334;2022-12-08T11:34:29;13.52;;;10.20;;
40154;SDS011;25875;48.202;16.334;2022-12-08T11:37:00;10.80;;;8.57;;
40154;SDS011;25875;48.202;16.334;2022-12-08T11:39:30;13.40;;;10.85;;
40154;SDS011;25875;48.202;16.334;2022-12-08T11:42:01;15.65;;;9.73;;
40154;SDS011;25875;48.202;16.334;2022-12-08T11:44:32;11.63;;;10.18;;
40154;SDS011;25875;48.202;16.334;2022-12-08T11:47:05;13.00;;;9.75;;
40154;SDS011;25875;48.202;16.334;2022-12-08T11:49:36;15.18;;;11.07;;
40154;SDS011;25875;48.202;16.334;2022-12-08T11:52:05;14.40;;;10.07;;
40154;SDS011;25875;48.202;16.334;2022-12-08T11:54:39;13.20;;;9.75;;
40154;SDS011;25875;48.202;16.334;2022-12-08T11:57:13;13.23;;;10.07;;
40154;SDS011;25875;48.202;16.334;2022-12-08T11:59:44;13.27;;;10.63;;
40154;SDS011;25875;48.202;16.334;2022-12-08T12:02:16;13.48;;;9.82;;
40154;SDS011;25875;48.202;16.334;2022-12-08T12:04:46;15.38;;;10.43;;
40154;SDS011;25875;48.202;16.334;2022-12-08T12:07:30;13.07;;;11.10;;
40154;SDS011;25875;48.202;16.334;2022-12-08T12:10:12;13.02;;;10.23;;
40154;SDS011;25875;48.202;16.334;2022-12-08T12:12:57;13.93;;;10.68;;
40154;SDS011;25875;48.202;16.334;2022-12-08T12:15:49;10.77;;;9.47;;
40154;SDS011;25875;48.202;16.334;2022-12-08T12:18:38;12.70;;;9.75;;
40154;SDS011;25875;48.202;16.334;2022-12-08T12:21:11;13.10;;;10.32;;
40154;SDS011;25875;48.202;16.334;2022-12-08T12:23:43;13.65;;;10.88;;
40154;SDS011;25875;48.202;16.334;2022-12-08T12:26:18;15.35;;;11.07;;
40154;SDS011;25875;48.202;16.334;2022-12-08T12:28:49;12.98;;;10.95;;
40154;SDS011;25875;48.202;16.334;2022-12-08T12:31:20;13.60;;;10.82;;
40154;SDS011;25875;48.202;16.334;2022-12-08T12:33:50;15.80;;;12.35;;
40154;SDS011;25875;48.202;16.334;2022-12-08T12:36:20;14.73;;;12.40;;
40154;SDS011;25875;48.202;16.334;2022-12-08T12:38:51;15.70;;;12.35;;
40154;SDS011;25875;48.202;16.334;2022-12-08T12:41:35;15.40;;;12.30;;
40154;SDS011;25875;48.202;16.334;2022-12-08T12:44:22;16.70;;;11.30;;
40154;SDS011;25875;48.202;16.334;2022-12-08T12:47:10;13.88;;;10.55;;
40154;SDS011;25875;48.202;16.334;2022-12-08T12:52:41;13.57;;;10.68;;
40154;SDS011;25875;48.202;16.334;2022-12-08T13:04:10;16.08;;;12.13;;
40154;SDS011;25875;48.202;16.334;2022-12-08T13:06:41;18.10;;;13.85;;
40154;SDS011;25875;48.202;16.334;2022-12-08T13:09:21;18.88;;;12.13;;
40154;SDS011;25875;48.202;16.334;2022-12-08T13:11:54;15.35;;;12.32;;
40154;SDS011;25875;48.202;16.334;2022-12-08T13:14:28;16.00;;;12.65;;
40154;SDS011;25875;48.202;16.334;2022-12-08T13:16:59;18.60;;;11.82;;
40154;SDS011;25875;48.202;16.334;2022-12-08T13:19:30;16.10;;;13.05;;
40154;SDS011;25875;48.202;16.334;2022-12-08T13:21:59;15.95;;;11.73;;
40154;SDS011;25875;48.202;16.334;2022-12-08T13:24:27;15.85;;;12.52;;
40154;SDS011;25875;48.202;16.334;2022-12-08T13:33:09;15.23;;;12.10;;
40154;SDS011;25875;48.202;16.334;2022-12-08T13:35:43;16.10;;;13.65;;
40154;SDS011;25875;48.202;16.334;2022-12-08T13:38:16;15.35;;;12.18;;
40154;SDS011;25875;48.202;16.334;2022-12-08T13:40:47;16.38;;;12.60;;
40154;SDS011;25875;48.202;16.334;2022-12-08T13:43:16;16.27;;;13.57;;
40154;SDS011;25875;48.202;16.334;2022-12-08T13:45:48;15.82;;;12.43;;
40154;SDS011;25875;48.202;16.334;2022-12-08T13:48:19;16.70;;;12.77;;
40154;SDS011;25875;48.202;16.334;2022-12-08T13:50:55;17.65;;;13.77;;
40154;SDS011;25875;48.202;16.334;2022-12-08T13:53:32;19.05;;;14.57;;
40154;SDS011;25875;48.202;16.334;2022-12-08T13:56:04;17.65;;;13.70;;
40154;SDS011;25875;48.202;16.334;2022-12-08T13:58:33;15.27;;;12.93;;
40154;SDS011;25875;48.202;16.334;2022-12-08T14:01:03;21.40;;;15.25;;
40154;SDS011;25875;48.202;16.334;2022-12-08T14:03:36;15.32;;;12.68;;
40154;SDS011;25875;48.202;16.334;2022-12-08T14:06:12;18.00;;;13.20;;
40154;SDS011;25875;48.202;16.334;2022-12-08T14:08:41;17.08;;;13.25;;
40154;SDS011;25875;48.202;16.334;2022-12-08T14:11:13;18.25;;;13.63;;
40154;SDS011;25875;48.202;16.334;2022-12-08T14:13:58;16.98;;;13.50;;
40154;SDS011;25875;48.202;16.334;2022-12-08T14:16:27;18.02;;;12.93;;
40154;SDS011;25875;48.202;16.334;2022-12-08T14:19:03;16.27;;;13.57;;
40154;SDS011;25875;48.202;16.334;2022-12-08T14:21:30;17.02;;;13.60;;
40154;SDS011;25875;48.202;16.334;2022-12-08T14:24:00;16.33;;;13.38;;
40154;SDS011;25875;48.202;16.334;2022-12-08T14:26:29;19.35;;;13.75;;
40154;SDS011;25875;48.202;16.334;2022-12-08T14:28:59;18.30;;;14.65;;
40154;SDS011;25875;48.202;16.334;2022-12-08T14:31:26;18.75;;;14.63;;
40154;SDS011;25875;48.202;16.334;2022-12-08T14:33:53;18.35;;;14.05;;
40154;SDS011;25875;48.202;16.334;2022-12-08T14:36:22;18.20;;;13.88;;
40154;SDS011;25875;48.202;16.334;2022-12-08T14:38:48;17.55;;;13.35;;
40154;SDS011;25875;48.202;16.334;2022-12-08T14:41:23;18.48;;;13.60;;
40154;SDS011;25875;48.202;16.334;2022-12-08T14:43:58;19.00;;;14.02;;
40154;SDS011;25875;48.202;16.334;2022-12-08T14:46:26;18.73;;;14.20;;
40154;SDS011;25875;48.202;16.334;2022-12-08T14:48:53;18.90;;;14.43;;
40154;SDS011;25875;48.202;16.334;2022-12-08T14:51:25;18.95;;;14.27;;
40154;SDS011;25875;48.202;16.334;2022-12-08T14:53:56;18.63;;;14.48;;
40154;SDS011;25875;48.202;16.334;2022-12-08T14:56:26;20.83;;;15.73;;
40154;SDS011;25875;48.202;16.334;2022-12-08T14:59:01;18.42;;;14.70;;
40154;SDS011;25875;48.202;16.334;2022-12-08T15:01:31;20.73;;;16.23;;
40154;SDS011;25875;48.202;16.334;2022-12-08T15:03:59;19.08;;;14.82;;